Unalaska, Alaska
Current Conditions -  °F | °C
As of 8:56 PM on Wednesday 22 Oct 2014 (Local Time) from PADU Reporting Station
Light Rain Light Rain  
Wind Chill: 33°   Ceiling: 2800
Heat Index: 41°   Visibility: 10mi
Dew Point: 33°   Wind: 16mph
Humidity: 73%   Direction: 300°WNW
Pressure: 30.16"   Gusts: 22mph
Location:  53.87°N, 166.54°W
Report Text: PADU 230456Z AUTO 30014G19KT 10SM -RA BKN028 OVC033 05/01 A3016 RMK AO2 RAB37 SLP220 T00500006 PNO $
Loading
Personal Weather Stations






























Interactive Weather Map
Tropical Storm Tracking
New forecast layout! Learn more

10-Day Weather Forecast

Advertisements
Track Severe Weather on mobile